Time;durP1;ratioP1;P1;durP2;ratioP2;P2;SDS_P1;SDS_P2;PMS_P1;PMS_P2;Temp;Humidity;BMP_temperature;BMP_pressure;BME280_temperature;BME280_humidity;BME280_pressure;Samples;Min_cycle;Max_cycle;Signal;HPM_P1;HPM_P2
2020/12/02 00:00:41;;;;;;;35.45;17.80;;;;;;;4.65;100.00;101698.72;4961315;28;20047;-82
2020/12/02 00:03:34;;;;;;;31.98;17.02;;;;;;;4.66;100.00;101699.56;4960878;28;20039;-83
2020/12/02 00:06:00;;;;;;;36.00;17.85;;;;;;;4.67;100.00;101704.78;4985744;28;20043;-83
2020/12/02 00:08:32;;;;;;;36.95;19.08;;;;;;;4.64;100.00;101699.69;4943940;28;20043;-83
2020/12/02 00:11:02;;;;;;;36.65;17.90;;;;;;;4.65;100.00;101698.72;4945744;28;20110;-82
2020/12/02 00:13:32;;;;;;;38.15;19.23;;;;;;;4.65;100.00;101701.38;4945603;28;20106;-83
2020/12/02 00:15:58;;;;;;;36.55;19.55;;;;;;;4.64;100.00;101691.72;4940197;28;20061;-82
2020/12/02 00:18:24;;;;;;;38.17;20.75;;;;;;;4.64;100.00;101693.53;4948838;28;20113;-82
2020/12/02 00:20:49;;;;;;;44.60;19.88;;;;;;;4.65;100.00;101695.22;4959312;28;20494;-81
2020/12/02 00:23:14;;;;;;;39.35;20.77;;;;;;;4.64;100.00;101694.38;4949843;28;20493;-81
2020/12/02 00:25:40;;;;;;;38.33;18.05;;;;;;;4.62;100.00;101690.94;4951498;28;20132;-82
2020/12/02 00:28:10;;;;;;;42.25;19.23;;;;;;;4.63;100.00;101694.47;4954996;28;20043;-83
2020/12/02 00:30:36;;;;;;;39.53;18.67;;;;;;;4.59;100.00;101691.16;4957122;28;20054;-81
2020/12/02 00:33:08;;;;;;;38.95;19.05;;;;;;;4.60;100.00;101700.81;4945075;28;20039;-82
2020/12/02 00:35:34;;;;;;;41.13;18.88;;;;;;;4.60;100.00;101695.50;4935775;28;20043;-81
2020/12/02 00:38:00;;;;;;;34.30;18.23;;;;;;;4.60;100.00;101702.63;4955039;28;20065;-81
2020/12/02 00:40:25;;;;;;;39.38;19.67;;;;;;;4.59;100.00;101699.13;4977150;28;20035;-80
2020/12/02 00:42:51;;;;;;;35.42;17.42;;;;;;;4.60;100.00;101705.31;4967581;28;20049;-82
2020/12/02 00:45:17;;;;;;;35.03;16.85;;;;;;;4.58;100.00;101700.09;4965037;28;20114;-81
2020/12/02 00:47:46;;;;;;;35.13;17.65;;;;;;;4.58;100.00;101701.91;4941113;28;20051;-82
2020/12/02 00:50:12;;;;;;;29.02;16.83;;;;;;;4.56;100.00;101702.00;4963823;28;20042;-80
2020/12/02 00:52:37;;;;;;;28.70;15.95;;;;;;;4.55;100.00;101702.13;4960284;28;20063;-82
2020/12/02 00:55:03;;;;;;;30.00;15.13;;;;;;;4.54;100.00;101698.59;4962452;28;20039;-82
2020/12/02 00:57:33;;;;;;;28.85;16.80;;;;;;;4.54;100.00;101703.91;4954932;28;20146;-82
2020/12/02 00:59:59;;;;;;;30.45;16.40;;;;;;;4.55;100.00;101696.81;4987658;28;20046;-82
2020/12/02 01:02:53;;;;;;;31.27;17.38;;;;;;;4.52;100.00;101703.19;4961302;28;20055;-81
2020/12/02 01:05:19;;;;;;;28.10;14.93;;;;;;;4.52;100.00;101697.88;4963598;28;20043;-82
2020/12/02 01:07:46;;;;;;;31.05;16.67;;;;;;;4.51;100.00;101689.00;4953800;28;20227;-82
2020/12/02 01:10:13;;;;;;;28.55;15.57;;;;;;;4.49;100.00;101690.09;4959878;28;20035;-83
2020/12/02 01:12:43;;;;;;;28.83;16.77;;;;;;;4.50;100.00;101687.31;4965863;28;20398;-81
2020/12/02 01:15:10;;;;;;;28.70;16.83;;;;;;;4.50;100.00;101692.63;4960585;28;20397;-81
2020/12/02 01:17:36;;;;;;;30.75;17.80;;;;;;;4.52;100.00;101687.22;4968497;28;20041;-81
2020/12/02 01:20:06;;;;;;;32.97;17.17;;;;;;;4.51;100.00;101688.16;4943518;28;20048;-81
2020/12/02 01:22:44;;;;;;;34.45;17.77;;;;;;;4.51;100.00;101686.34;4957082;28;20078;-83
2020/12/02 01:25:15;;;;;;;35.08;19.10;;;;;;;4.52;100.00;101689.88;4956516;28;20465;-83
2020/12/02 01:27:48;;;;;;;33.55;18.80;;;;;;;4.51;100.00;101690.81;4985578;28;20043;-83
2020/12/02 01:30:16;;;;;;;33.10;19.35;;;;;;;4.50;100.00;101684.66;4954692;28;20402;-82
2020/12/02 01:32:43;;;;;;;33.35;18.70;;;;;;;4.50;100.00;101683.81;4957882;28;20107;-82
2020/12/02 01:35:12;;;;;;;34.25;19.23;;;;;;;4.52;100.00;101687.22;4964765;28;20401;-82
2020/12/02 01:37:43;;;;;;;38.60;19.27;;;;;;;4.50;100.00;101687.31;4964979;28;20505;-82
2020/12/02 01:40:17;;;;;;;34.17;19.90;;;;;;;4.49;100.00;101690.09;4960987;28;20043;-83
2020/12/02 01:43:02;;;;;;;33.95;19.45;;;;;;;4.48;100.00;101686.56;4965834;28;20043;-83
2020/12/02 01:45:38;;;;;;;37.30;19.27;;;;;;;4.48;100.00;101685.72;4963411;28;20051;-82
2020/12/02 01:48:24;;;;;;;37.15;19.73;;;;;;;4.49;100.00;101687.44;4961005;28;20131;-82
2020/12/02 01:51:00;;;;;;;39.25;18.48;;;;;;;4.47;100.00;101689.34;4958461;28;20042;-82
2020/12/02 01:53:43;;;;;;;34.17;18.30;;;;;;;4.44;100.00;101689.53;4948478;28;20039;-82
2020/12/02 01:56:36;;;;;;;36.40;19.85;;;;;;;4.43;100.00;101694.00;4944823;28;20055;-82
2020/12/02 01:59:13;;;;;;;33.25;16.95;;;;;;;4.40;100.00;101691.56;4950101;28;20413;-83
2020/12/02 02:01:56;;;;;;;36.58;18.10;;;;;;;4.38;100.00;101682.84;4913269;29;20039;-83
2020/12/02 02:04:32;;;;;;;33.38;17.77;;;;;;;4.35;100.00;101685.69;4935780;28;20070;-82
2020/12/02 02:07:16;;;;;;;35.20;18.73;;;;;;;4.34;100.00;101678.66;4939954;28;20039;-81
2020/12/02 02:09:42;;;;;;;43.40;19.77;;;;;;;4.35;100.00;101677.72;4946863;28;20044;-82
2020/12/02 02:12:36;;;;;;;35.42;18.58;;;;;;;4.38;100.00;101674.00;4933824;28;20122;-82
2020/12/02 02:15:39;;;;;;;41.58;20.23;;;;;;;4.40;100.00;101680.94;4934933;28;20522;-81
2020/12/02 02:18:12;;;;;;;41.67;20.08;;;;;;;4.38;100.00;101672.19;4949652;28;20082;-81
2020/12/02 02:20:41;;;;;;;45.22;20.83;;;;;;;4.33;100.00;101673.47;4919435;29;20040;-82
2020/12/02 02:23:10;;;;;;;45.47;21.92;;;;;;;4.37;100.00;101664.31;4921078;28;20048;-82
2020/12/02 02:25:36;;;;;;;41.67;21.23;;;;;;;4.38;100.00;101680.19;4936654;28;20047;-83
2020/12/02 02:28:02;;;;;;;43.63;21.13;;;;;;;4.37;100.00;101672.28;4938330;28;20129;-83
2020/12/02 02:30:28;;;;;;;40.78;20.83;;;;;;;4.35;100.00;101668.91;4937757;28;20479;-82
2020/12/02 02:32:54;;;;;;;38.25;20.02;;;;;;;4.33;100.00;101666.34;4906412;29;20040;-82
2020/12/02 02:35:21;;;;;;;39.35;18.75;;;;;;;4.29;100.00;101665.69;4938130;28;20055;-83
2020/12/02 02:37:46;;;;;;;43.55;20.52;;;;;;;4.30;100.00;101666.53;4921348;29;20116;-82
2020/12/02 02:40:13;;;;;;;41.33;20.50;;;;;;;4.30;100.00;101667.38;4940954;28;20036;-83
2020/12/02 02:42:42;;;;;;;40.78;20.00;;;;;;;4.32;100.00;101663.78;4936819;29;20036;-83
2020/12/02 02:45:12;;;;;;;45.13;22.88;;;;;;;4.28;100.00;101663.13;4943669;28;20031;-82
2020/12/02 02:47:38;;;;;;;44.53;23.45;;;;;;;4.30;100.00;101666.53;4943122;28;20122;-83
2020/12/02 02:50:09;;;;;;;49.05;23.83;;;;;;;4.31;100.00;101662.91;4935703;28;20097;-83
2020/12/02 02:52:34;;;;;;;47.63;22.00;;;;;;;4.28;100.00;101663.97;4925664;29;20051;-83
2020/12/02 02:55:00;;;;;;;49.30;26.73;;;;;;;4.29;100.00;101651.56;4933773;28;20063;-83
2020/12/02 02:57:25;;;;;;;47.30;25.73;;;;;;;4.29;100.00;101655.06;4934335;28;20043;-83
2020/12/02 02:59:51;;;;;;;52.47;25.88;;;;;;;4.32;100.00;101655.81;4939648;28;20095;-83
2020/12/02 03:02:16;;;;;;;57.55;28.73;;;;;;;4.32;100.00;101654.00;4941386;28;20576;-84
2020/12/02 03:04:42;;;;;;;52.63;26.75;;;;;;;4.30;100.00;101658.56;4926696;29;20068;-83
2020/12/02 03:07:17;;;;;;;52.97;27.38;;;;;;;4.30;100.00;101654.09;4920782;29;20119;-83
2020/12/02 03:09:44;;;;;;;50.90;26.10;;;;;;;4.23;100.00;101660.78;4967646;28;20051;-83
2020/12/02 03:12:10;;;;;;;53.08;28.45;;;;;;;4.27;100.00;101656.13;4944578;28;20123;-83
2020/12/02 03:14:41;;;;;;;53.67;25.65;;;;;;;4.23;100.00;101659.91;4942375;28;20044;-81
2020/12/02 03:17:12;;;;;;;53.45;27.48;;;;;;;4.26;100.00;101660.59;4962661;28;20089;-81
2020/12/02 03:19:44;;;;;;;54.78;28.10;;;;;;;4.26;100.00;101660.59;4960097;28;20046;-80
2020/12/02 03:22:12;;;;;;;53.50;28.48;;;;;;;4.23;100.00;101662.56;4963805;28;20063;-80
2020/12/02 03:24:43;;;;;;;53.42;26.00;;;;;;;4.24;100.00;101661.63;4953529;28;20043;-83
2020/12/02 03:27:08;;;;;;;48.70;26.95;;;;;;;4.25;100.00;101661.53;4941646;28;20043;-82
2020/12/02 03:29:34;;;;;;;55.45;27.23;;;;;;;4.22;100.00;101664.38;4943017;28;20051;-84
2020/12/02 03:31:59;;;;;;;55.25;27.88;;;;;;;4.23;100.00;101665.22;4936820;28;20047;-82
2020/12/02 03:34:25;;;;;;;58.45;29.33;;;;;;;4.26;100.00;101665.06;4923470;28;20494;-81
2020/12/02 03:36:51;;;;;;;55.97;29.13;;;;;;;4.24;100.00;101662.50;4937838;29;20054;-82
2020/12/02 03:39:17;;;;;;;54.97;28.65;;;;;;;4.27;100.00;101656.13;4943747;28;20040;-81
2020/12/02 03:41:43;;;;;;;49.90;28.02;;;;;;;4.25;100.00;101653.56;4939194;28;20059;-81
2020/12/02 03:44:09;;;;;;;56.33;29.17;;;;;;;4.28;100.00;101653.34;4935503;28;20051;-82
2020/12/02 03:46:35;;;;;;;55.30;29.50;;;;;;;4.28;100.00;101642.72;4934885;28;20044;-81
2020/12/02 03:49:02;;;;;;;60.80;30.77;;;;;;;4.28;100.00;101645.38;4938288;28;20094;-80
2020/12/02 03:51:29;;;;;;;58.67;28.75;;;;;;;4.27;100.00;101635.72;4934602;28;20063;-82
2020/12/02 03:53:55;;;;;;;57.90;29.30;;;;;;;4.27;100.00;101634.88;4942781;28;20103;-82
2020/12/02 03:56:21;;;;;;;56.40;29.52;;;;;;;4.27;100.00;101632.22;4932704;28;20031;-82
2020/12/02 03:58:48;;;;;;;57.35;29.23;;;;;;;4.26;100.00;101622.53;4939159;28;20043;-81
2020/12/02 04:01:14;;;;;;;50.90;27.98;;;;;;;4.25;100.00;101632.28;4938773;28;20135;-81
2020/12/02 04:03:40;;;;;;;55.22;28.98;;;;;;;4.27;100.00;101625.09;4931321;28;20040;-82
2020/12/02 04:06:07;;;;;;;53.20;26.35;;;;;;;4.25;100.00;101626.97;4922245;29;20046;-81
2020/12/02 04:08:33;;;;;;;49.55;26.17;;;;;;;4.24;100.00;101612.00;4923718;29;20035;-81
2020/12/02 04:10:59;;;;;;;51.45;26.75;;;;;;;4.27;100.00;101614.44;4934568;28;20066;-81
2020/12/02 04:13:26;;;;;;;57.60;28.35;;;;;;;4.30;100.00;101626.69;4933594;28;20055;-80
2020/12/02 04:15:51;;;;;;;50.85;26.58;;;;;;;4.29;100.00;101619.69;4918453;29;20036;-82
2020/12/02 04:18:16;;;;;;;58.47;27.45;;;;;;;4.30;100.00;101626.69;4931464;28;20039;-82
2020/12/02 04:20:42;;;;;;;58.60;28.73;;;;;;;4.29;100.00;101628.50;4914408;29;21642;-82
2020/12/02 04:23:07;;;;;;;62.65;29.42;;;;;;;4.32;100.00;101631.91;4944745;28;20042;-81
2020/12/02 04:25:33;;;;;;;59.70;28.83;;;;;;;4.25;100.00;101634.94;4933435;28;20499;-82
2020/12/02 04:27:58;;;;;;;66.75;29.10;;;;;;;4.28;100.00;101637.41;4930413;28;20071;-81
2020/12/02 04:30:24;;;;;;;71.63;30.60;;;;;;;4.28;100.00;101632.09;4938427;28;20059;-82
2020/12/02 04:32:50;;;;;;;67.78;30.75;;;;;;;4.28;100.00;101639.22;4914610;28;20530;-83
2020/12/02 04:35:16;;;;;;;71.88;30.60;;;;;;;4.28;100.00;101640.06;4930891;28;20035;-82
2020/12/02 04:37:42;;;;;;;76.45;31.23;;;;;;;4.30;100.00;101632.00;4934165;28;20043;-83
2020/12/02 04:40:12;;;;;;;66.93;30.13;;;;;;;4.26;100.00;101634.03;4936794;28;20533;-81
2020/12/02 04:42:42;;;;;;;71.55;31.60;;;;;;;4.24;100.00;101633.25;4932091;28;20075;-81
2020/12/02 04:45:12;;;;;;;70.38;32.58;;;;;;;4.27;100.00;101632.22;4938936;28;20576;-81
2020/12/02 04:47:40;;;;;;;77.20;31.63;;;;;;;4.26;100.00;101628.69;4934512;28;20079;-82
2020/12/02 04:50:24;;;;;;;81.78;33.20;;;;;;;4.26;100.00;101626.03;4931692;28;20039;-82
2020/12/02 04:53:01;;;;;;;73.72;31.70;;;;;;;4.25;100.00;101626.97;4946240;28;20043;-83
2020/12/02 04:55:27;;;;;;;76.40;32.30;;;;;;;4.23;100.00;101628.91;4957883;28;20118;-81
2020/12/02 04:57:53;;;;;;;81.95;32.78;;;;;;;4.23;100.00;101628.03;4957634;28;20043;-82
2020/12/02 05:00:31;;;;;;;75.63;31.92;;;;;;;4.24;100.00;101630.59;4946877;28;20521;-81
2020/12/02 05:03:11;;;;;;;80.57;33.85;;;;;;;4.23;100.00;101625.38;4934157;28;20135;-80
2020/12/02 05:05:37;;;;;;;71.30;33.03;;;;;;;4.22;100.00;101619.22;4931809;28;20090;-81
2020/12/02 05:08:29;;;;;;;87.18;34.25;;;;;;;4.24;100.00;101619.13;4935640;28;20134;-81
2020/12/02 05:10:57;;;;;;;83.30;33.35;;;;;;;4.22;100.00;101608.59;4946534;28;20086;-83
2020/12/02 05:13:24;;;;;;;87.03;33.17;;;;;;;4.23;100.00;101606.78;4934106;28;20067;-82
2020/12/02 05:16:04;;;;;;;83.00;33.92;;;;;;;4.23;100.00;101607.66;4935930;28;20040;-81
2020/12/02 05:18:29;;;;;;;75.88;32.50;;;;;;;4.24;100.00;101608.50;4933759;28;20046;-81
2020/12/02 05:21:05;;;;;;;85.80;35.25;;;;;;;4.28;100.00;101607.31;4937449;28;20036;-81
2020/12/02 05:23:31;;;;;;;90.60;34.72;;;;;;;4.25;100.00;101604.88;4941911;28;20118;-83
2020/12/02 05:25:57;;;;;;;89.93;35.13;;;;;;;4.27;100.00;101602.97;4933116;29;20138;-81
2020/12/02 05:28:41;;;;;;;94.72;32.63;;;;;;;4.21;100.00;101606.91;4935982;28;20431;-80
2020/12/02 05:31:23;;;;;;;90.10;34.60;;;;;;;4.21;100.00;101606.91;4940984;28;20099;-82
2020/12/02 05:33:49;;;;;;;91.35;34.65;;;;;;;4.21;100.00;101606.06;4935449;28;20075;-82
2020/12/02 05:36:23;;;;;;;95.80;34.08;;;;;;;4.21;100.00;101612.22;4930960;28;20047;-81
2020/12/02 05:38:55;;;;;;;84.50;32.10;;;;;;;4.21;100.00;101614.88;4949696;28;20035;-81
2020/12/02 05:41:20;;;;;;;95.75;34.83;;;;;;;4.22;100.00;101615.72;4953289;28;20039;-81
2020/12/02 05:43:58;;;;;;;86.35;33.42;;;;;;;4.23;100.00;101607.66;4952241;28;20044;-82
2020/12/02 05:46:29;;;;;;;97.03;35.78;;;;;;;4.22;100.00;101605.94;4955058;28;20043;-81
2020/12/02 05:49:04;;;;;;;90.65;35.15;;;;;;;4.23;100.00;101604.13;4938235;28;20123;-82
2020/12/02 05:51:30;;;;;;;92.88;34.92;;;;;;;4.23;100.00;101605.00;4952967;28;20135;-82
2020/12/02 05:54:00;;;;;;;78.57;31.30;;;;;;;4.22;100.00;101613.06;4944187;28;20649;-83
2020/12/02 05:56:26;;;;;;;87.55;33.65;;;;;;;4.23;100.00;101602.34;4956373;28;20045;-82
2020/12/02 05:58:51;;;;;;;88.50;33.17;;;;;;;4.22;100.00;101600.63;4940591;28;20125;-82
2020/12/02 06:01:19;;;;;;;77.45;31.92;;;;;;;4.23;100.00;101599.69;4912133;28;20044;-84
2020/12/02 06:03:54;;;;;;;81.90;32.70;;;;;;;4.23;100.00;101602.34;4937635;28;20083;-82
2020/12/02 06:06:20;;;;;;;92.22;33.20;;;;;;;4.22;100.00;101595.31;4941513;28;20054;-83
2020/12/02 06:08:50;;;;;;;86.20;32.90;;;;;;;4.24;100.00;101597.88;4920783;28;20126;-82
2020/12/02 06:11:15;;;;;;;79.97;32.92;;;;;;;4.25;100.00;101591.59;4937921;28;20078;-81
2020/12/02 06:14:21;;;;;;;80.07;31.30;;;;;;;4.20;100.00;101597.25;4936566;28;20043;-82
2020/12/02 06:16:47;;;;;;;74.90;31.02;;;;;;;4.21;100.00;101593.63;4995367;28;20461;-82
2020/12/02 06:19:19;;;;;;;74.68;31.85;;;;;;;4.20;100.00;101594.59;4955101;28;20063;-81
2020/12/02 06:21:54;;;;;;;75.00;32.92;;;;;;;4.23;100.00;101597.03;4931506;28;20051;-81
2020/12/02 06:24:37;;;;;;;74.07;32.25;;;;;;;4.24;100.00;101593.41;4958464;28;20509;-82
2020/12/02 06:27:14;;;;;;;72.18;33.00;;;;;;;4.22;100.00;101583.84;4954731;28;20421;-82
2020/12/02 06:29:55;;;;;;;67.20;30.48;;;;;;;4.19;100.00;101584.03;4940567;28;20179;-82
2020/12/02 06:32:24;;;;;;;69.25;28.67;;;;;;;4.18;100.00;101579.69;4934353;28;20491;-81
2020/12/02 06:35:06;;;;;;;71.30;30.40;;;;;;;4.18;100.00;101579.69;4927517;29;20070;-81
2020/12/02 06:37:32;;;;;;;57.40;27.67;;;;;;;4.17;100.00;101580.63;4935138;28;20502;-82
2020/12/02 06:39:59;;;;;;;67.22;30.13;;;;;;;4.18;100.00;101577.88;4966600;28;20042;-83
2020/12/02 06:42:37;;;;;;;60.08;30.35;;;;;;;4.19;100.00;101581.38;4918144;28;20064;-80
2020/12/02 06:45:24;;;;;;;67.88;30.38;;;;;;;4.22;100.00;101570.56;4940658;28;20036;-81
2020/12/02 06:47:49;;;;;;;63.45;30.10;;;;;;;4.21;100.00;101580.34;4942253;28;20043;-81
2020/12/02 06:50:27;;;;;;;65.25;28.65;;;;;;;4.21;100.00;101572.34;4933607;28;20047;-81
2020/12/02 06:52:56;;;;;;;67.97;29.50;;;;;;;4.22;100.00;101581.19;4938871;28;20051;-80
2020/12/02 06:55:27;;;;;;;65.70;29.42;;;;;;;4.21;100.00;101577.66;4935937;28;20032;-82
2020/12/02 06:58:01;;;;;;;70.05;29.73;;;;;;;4.22;100.00;101584.69;4928030;28;20060;-80
2020/12/02 07:00:30;;;;;;;71.90;30.85;;;;;;;4.23;100.00;101578.44;4957202;28;20059;-81
2020/12/02 07:03:09;;;;;;;74.28;31.88;;;;;;;4.24;100.00;101579.28;4953566;28;20076;-81
2020/12/02 07:05:43;;;;;;;70.57;31.27;;;;;;;4.21;100.00;101583.00;4908857;28;20059;-83
2020/12/02 07:08:22;;;;;;;67.05;30.55;;;;;;;4.19;100.00;101579.56;4939224;28;20043;-83
2020/12/02 07:10:56;;;;;;;64.88;30.35;;;;;;;4.20;100.00;101569.78;4940089;28;20044;-83
2020/12/02 07:13:22;;;;;;;66.57;31.48;;;;;;;4.17;100.00;101565.56;4936388;28;20044;-81
2020/12/02 07:15:48;;;;;;;63.92;29.63;;;;;;;4.15;100.00;101572.78;4934225;28;20063;-81
2020/12/02 07:18:17;;;;;;;63.70;30.05;;;;;;;4.16;100.00;101574.47;4934765;28;20047;-82
2020/12/02 07:20:49;;;;;;;67.45;30.83;;;;;;;4.16;100.00;101563.00;4934015;28;20038;-82
2020/12/02 07:23:20;;;;;;;62.38;30.38;;;;;;;4.15;100.00;101569.28;4944685;28;20042;-80
2020/12/02 07:25:46;;;;;;;59.42;30.08;;;;;;;4.14;100.00;101557.78;4934240;28;20380;-83
2020/12/02 07:28:22;;;;;;;58.15;29.38;;;;;;;4.14;100.00;101564.91;4935786;28;20180;-84
2020/12/02 07:30:48;;;;;;;54.25;27.55;;;;;;;4.13;100.00;101560.56;4949258;28;20047;-83
2020/12/02 07:33:25;;;;;;;53.08;28.00;;;;;;;4.14;100.00;101560.44;4913499;29;20044;-82
2020/12/02 07:36:13;;;;;;;56.22;27.33;;;;;;;4.13;100.00;101564.06;4924030;28;20040;-83
2020/12/02 07:38:40;;;;;;;53.42;26.10;;;;;;;4.13;100.00;101564.06;4951493;28;20517;-83
2020/12/02 07:41:15;;;;;;;52.63;28.05;;;;;;;4.14;100.00;101563.09;4996927;23;20055;-85
2020/12/02 07:43:45;;;;;;;53.03;27.08;;;;;;;4.15;100.00;101561.31;5006755;28;20065;-83
2020/12/02 07:46:12;;;;;;;55.60;25.65;;;;;;;4.12;100.00;101557.06;5013568;28;20096;-85
2020/12/02 07:48:40;;;;;;;53.17;27.42;;;;;;;4.17;100.00;101551.41;5010148;28;20038;-84
2020/12/02 07:51:16;;;;;;;51.90;28.25;;;;;;;4.18;100.00;101548.66;5009079;28;20404;-84
2020/12/02 07:53:44;;;;;;;56.20;28.52;;;;;;;4.18;100.00;101545.16;4973704;28;20034;-83
2020/12/02 07:56:17;;;;;;;59.63;30.55;;;;;;;4.16;100.00;101545.25;5004943;28;20038;-84
2020/12/02 07:58:44;;;;;;;55.08;28.15;;;;;;;4.15;100.00;101543.56;4991051;28;20129;-83
2020/12/02 08:01:29;;;;;;;53.25;28.38;;;;;;;4.16;100.00;101545.25;4988989;28;20069;-83
2020/12/02 08:03:54;;;;;;;59.33;30.02;;;;;;;4.18;100.00;101548.66;4988492;28;20034;-85
2020/12/02 08:06:40;;;;;;;56.72;29.52;;;;;;;4.15;100.00;101548.88;4987241;28;20619;-84
2020/12/02 08:09:05;;;;;;;51.53;27.15;;;;;;;4.17;100.00;101552.28;4981276;28;20411;-84
2020/12/02 08:11:31;;;;;;;55.33;29.00;;;;;;;4.20;100.00;101548.53;4999294;28;20046;-84
2020/12/02 08:13:57;;;;;;;55.28;28.77;;;;;;;4.22;100.00;101546.63;4993838;28;20072;-84
2020/12/02 08:16:43;;;;;;;61.60;30.60;;;;;;;4.22;100.00;101546.63;4983202;28;20076;-84
2020/12/02 08:19:11;;;;;;;53.50;28.08;;;;;;;4.21;100.00;101555.56;5002295;28;20044;-84
2020/12/02 08:21:39;;;;;;;52.65;26.67;;;;;;;4.20;100.00;101548.53;5003961;28;20130;-83
2020/12/02 08:24:30;;;;;;;55.80;28.88;;;;;;;4.20;100.00;101543.22;5004798;28;20523;-83
2020/12/02 08:26:55;;;;;;;50.15;26.77;;;;;;;4.19;100.00;101545.03;4983670;28;20050;-84
2020/12/02 08:29:24;;;;;;;49.80;27.85;;;;;;;4.20;100.00;101541.44;5006893;28;20092;-83
2020/12/02 08:32:05;;;;;;;53.92;28.27;;;;;;;4.23;100.00;101545.66;5026669;28;20466;-84
2020/12/02 08:34:34;;;;;;;50.15;26.73;;;;;;;4.21;100.00;101535.16;5009809;28;20059;-83
2020/12/02 08:37:24;;;;;;;52.80;28.10;;;;;;;4.24;100.00;101534.09;5011316;28;20040;-85
2020/12/02 08:39:54;;;;;;;56.63;28.27;;;;;;;4.24;100.00;101537.63;4985978;28;20140;-84
2020/12/02 08:42:31;;;;;;;54.72;26.83;;;;;;;4.24;100.00;101534.97;5017415;28;20034;-84
2020/12/02 08:45:06;;;;;;;52.80;27.45;;;;;;;4.24;100.00;101534.09;5009670;28;20057;-84
2020/12/02 08:47:32;;;;;;;55.90;28.58;;;;;;;4.26;100.00;101530.41;5006498;28;20087;-84
2020/12/02 08:49:57;;;;;;;55.30;28.90;;;;;;;4.28;100.00;101523.16;5009725;28;20480;-84
2020/12/02 08:52:23;;;;;;;55.45;27.70;;;;;;;4.30;100.00;101523.91;5017713;28;20038;-83
2020/12/02 08:54:48;;;;;;;54.90;28.42;;;;;;;4.29;100.00;101522.22;5010858;28;20049;-83
2020/12/02 08:57:14;;;;;;;57.55;27.67;;;;;;;4.32;100.00;101515.84;5003977;28;20038;-84
2020/12/02 08:59:40;;;;;;;55.03;28.75;;;;;;;4.32;100.00;101515.00;5022763;28;20065;-85
2020/12/02 09:02:14;;;;;;;57.03;27.85;;;;;;;4.30;100.00;101521.25;5010506;28;20041;-83
2020/12/02 09:04:40;;;;;;;57.97;28.10;;;;;;;4.31;100.00;101508.81;4985426;28;20107;-84
2020/12/02 09:07:06;;;;;;;54.58;28.23;;;;;;;4.35;100.00;101510.31;5005706;28;20181;-84
2020/12/02 09:09:31;;;;;;;54.90;28.15;;;;;;;4.35;100.00;101509.47;5006156;28;20057;-83
2020/12/02 09:11:57;;;;;;;53.03;26.02;;;;;;;4.34;100.00;101505.94;5023607;28;20444;-84
2020/12/02 09:14:22;;;;;;;52.83;27.35;;;;;;;4.34;100.00;101497.97;4998220;28;20520;-84
2020/12/02 09:16:48;;;;;;;55.55;28.00;;;;;;;4.32;100.00;101499.91;5027317;28;20054;-84
2020/12/02 09:19:16;;;;;;;56.67;26.17;;;;;;;4.35;100.00;101504.16;5010094;28;20049;-84
2020/12/02 09:21:42;;;;;;;53.08;28.02;;;;;;;4.35;100.00;101497.03;5024977;28;20172;-85
2020/12/02 09:24:08;;;;;;;51.75;26.77;;;;;;;4.36;100.00;101492.56;5006531;28;20037;-84
2020/12/02 09:26:34;;;;;;;54.90;27.42;;;;;;;4.35;100.00;101489.06;5004398;28;20049;-84
2020/12/02 09:29:03;;;;;;;58.10;29.02;;;;;;;4.38;100.00;101490.66;4984214;28;20045;-84
2020/12/02 09:31:30;;;;;;;61.20;29.15;;;;;;;4.38;100.00;101483.53;5009959;28;20385;-84
2020/12/02 09:33:56;;;;;;;60.35;28.88;;;;;;;4.42;100.00;101476.16;5007188;28;20501;-84
2020/12/02 09:36:23;;;;;;;58.88;28.75;;;;;;;4.41;100.00;101477.16;5006692;28;20068;-84
2020/12/02 09:38:50;;;;;;;59.70;29.17;;;;;;;4.40;100.00;101478.94;5024312;28;20045;-83
2020/12/02 09:41:32;;;;;;;55.85;29.77;;;;;;;4.41;100.00;101471.81;5016704;28;20041;-83
2020/12/02 09:44:29;;;;;;;54.38;26.38;;;;;;;4.41;100.00;101466.50;5008518;28;20048;-84
2020/12/02 09:46:59;;;;;;;52.45;27.75;;;;;;;4.42;100.00;101474.34;5005116;28;20124;-83
2020/12/02 09:49:25;;;;;;;58.95;28.83;;;;;;;4.40;100.00;101468.31;5009584;28;20061;-83
2020/12/02 09:52:13;;;;;;;53.22;27.40;;;;;;;4.42;100.00;101461.06;4984634;28;20054;-84
2020/12/02 09:54:42;;;;;;;53.40;26.95;;;;;;;4.45;100.00;101465.31;4990795;28;20450;-84
2020/12/02 09:57:19;;;;;;;54.30;27.65;;;;;;;4.46;100.00;101456.38;5028406;28;20125;-83
2020/12/02 09:59:45;;;;;;;54.13;26.90;;;;;;;4.46;100.00;101453.72;5011816;28;20579;-84
2020/12/02 10:02:47;;;;;;;57.30;28.90;;;;;;;4.47;100.00;101439.50;5029602;28;20132;-83
2020/12/02 10:05:34;;;;;;;53.20;28.15;;;;;;;4.48;100.00;101442.03;5014465;28;20145;-83
2020/12/02 10:08:16;;;;;;;55.70;26.90;;;;;;;4.45;100.00;101438.75;5015549;28;20057;-84
2020/12/02 10:11:00;;;;;;;55.13;27.05;;;;;;;4.46;100.00;101432.47;5012298;28;20104;-84
2020/12/02 10:13:37;;;;;;;55.63;28.23;;;;;;;4.49;100.00;101429.63;5025405;28;20053;-84
2020/12/02 10:16:29;;;;;;;52.45;27.88;;;;;;;4.51;100.00;101425.00;5014682;28;20511;-84
2020/12/02 10:19:21;;;;;;;56.25;26.58;;;;;;;4.50;100.00;101426.00;5009548;28;20049;-84
2020/12/02 10:22:09;;;;;;;55.15;28.83;;;;;;;4.53;100.00;101421.28;5008197;28;21566;-83
2020/12/02 10:25:07;;;;;;;52.28;25.83;;;;;;;4.55;100.00;101425.66;5010939;28;20412;-84
2020/12/02 10:27:43;;;;;;;53.33;26.63;;;;;;;4.47;100.00;101407.59;5010169;28;20088;-84
2020/12/02 10:30:21;;;;;;;50.70;26.58;;;;;;;4.50;100.00;101407.38;5004437;28;20377;-84
2020/12/02 10:32:56;;;;;;;55.90;27.48;;;;;;;4.50;100.00;101407.38;5011893;28;20062;-84
2020/12/02 10:35:23;;;;;;;59.88;30.05;;;;;;;4.56;100.00;101398.97;5011742;28;20034;-83
2020/12/02 10:37:54;;;;;;;53.35;29.25;;;;;;;4.56;100.00;101390.16;5010646;28;20066;-84
2020/12/02 10:40:19;;;;;;;56.88;28.35;;;;;;;4.52;100.00;101389.53;4992180;28;20423;-82
2020/12/02 10:43:22;;;;;;;58.63;27.38;;;;;;;4.55;100.00;101388.47;5012142;28;20127;-85
2020/12/02 10:45:50;;;;;;;56.92;28.20;;;;;;;4.55;100.00;101391.13;5001359;28;20054;-83
2020/12/02 10:48:51;;;;;;;54.35;29.30;;;;;;;4.57;100.00;101375.88;4996403;28;20573;-84
2020/12/02 10:51:17;;;;;;;57.13;30.13;;;;;;;4.58;100.00;101378.44;5006322;28;20496;-84
2020/12/02 10:53:47;;;;;;;56.50;29.73;;;;;;;4.57;100.00;101368.75;5010529;28;20052;-83
2020/12/02 10:56:14;;;;;;;55.72;29.98;;;;;;;4.58;100.00;101369.63;5002961;28;20089;-84
2020/12/02 10:58:40;;;;;;;52.25;27.92;;;;;;;4.59;100.00;101368.66;5009163;28;20039;-83
2020/12/02 11:01:09;;;;;;;54.25;28.70;;;;;;;4.60;100.00;101370.34;5024124;28;20042;-84
2020/12/02 11:03:39;;;;;;;55.17;28.20;;;;;;;4.58;100.00;101373.13;5007662;28;20128;-82
2020/12/02 11:06:18;;;;;;;59.28;30.85;;;;;;;4.63;100.00;101365.69;5020622;28;20041;-84
2020/12/02 11:09:03;;;;;;;;;;;;;;;4.60;100.00;101365.88;4994718;28;20049;-85
2020/12/02 11:11:34;;;;;;;60.35;31.00;;;;;;;4.53;100.00;101362.81;5013202;28;20071;-84
2020/12/02 11:14:18;;;;;;;56.92;31.58;;;;;;;4.57;100.00;101359.94;5014647;28;20064;-84
2020/12/02 11:17:05;;;;;;;53.53;27.67;;;;;;;4.56;100.00;101353.78;5009716;28;20065;-84
2020/12/02 11:19:42;;;;;;;54.70;31.08;;;;;;;4.57;100.00;101351.97;5012335;28;20122;-84
2020/12/02 11:22:26;;;;;;;54.45;30.00;;;;;;;4.62;100.00;101353.31;5001499;28;20072;-84
2020/12/02 11:25:11;;;;;;;56.33;30.20;;;;;;;4.63;100.00;101355.03;5010585;28;20137;-83
2020/12/02 11:27:36;;;;;;;55.63;31.50;;;;;;;4.57;100.00;101347.50;5008673;28;20123;-83
2020/12/02 11:30:11;;;;;;;51.97;29.00;;;;;;;4.56;100.00;101342.28;5011383;28;20591;-84